Time;durP1;ratioP1;P1;durP2;ratioP2;P2;SDS_P1;SDS_P2;PMS_P1;PMS_P2;Temp;Humidity;BMP_temperature;BMP_pressure;BME280_temperature;BME280_humidity;BME280_pressure;Samples;Min_cycle;Max_cycle;Signal;HPM_P1;HPM_P2
2022/06/05 00:01:12;;;;;;;;;;;11.60;99.90;;;;;;5111148;28;19970;-75
2022/06/05 00:03:44;;;;;;;;;;;11.60;99.90;;;;;;5075562;28;19951;-73
2022/06/05 00:06:28;;;;;;;;;;;11.60;99.90;;;;;;5111052;28;20036;-75
2022/06/05 00:09:08;;;;;;;;;;;11.60;99.90;;;;;;5074207;28;19924;-76
2022/06/05 00:11:39;;;;;;;;;;;11.60;99.90;;;;;;5075397;28;19927;-72
2022/06/05 00:14:05;;;;;;;;;;;11.60;99.90;;;;;;5075559;28;19983;-73
2022/06/05 00:16:30;;;;;;;;;;;11.60;99.90;;;;;;5082393;28;19948;-77
2022/06/05 00:18:56;;;;;;;;;;;11.60;99.90;;;;;;5077588;28;20001;-74
2022/06/05 00:21:21;;;;;;;;;;;11.60;99.90;;;;;;5071389;28;19984;-75
2022/06/05 00:23:47;;;;;;;;;;;11.60;99.90;;;;;;5078193;28;19920;-77
2022/06/05 00:26:19;;;;;;;;;;;11.60;99.90;;;;;;5075704;28;19920;-75
2022/06/05 00:28:47;;;;;;;;;;;11.50;99.90;;;;;;5076518;28;19928;-75
2022/06/05 00:31:32;;;;;;;;;;;11.50;99.90;;;;;;5105734;28;19920;-72
2022/06/05 00:33:57;;;;;;;;;;;11.50;99.90;;;;;;5074577;28;19932;-76
2022/06/05 00:36:41;;;;;;;;;;;11.50;99.90;;;;;;5079753;28;19985;-74
2022/06/05 00:39:10;;;;;;;;;;;11.50;99.90;;;;;;5074984;28;19970;-76
2022/06/05 00:41:44;;;;;;;;;;;11.50;99.90;;;;;;5112366;27;19929;-73
2022/06/05 00:44:11;;;;;;;;;;;11.50;99.90;;;;;;5081991;28;19928;-76
2022/06/05 00:46:37;;;;;;;;;;;11.50;99.90;;;;;;5076552;28;19978;-74
2022/06/05 00:49:03;;;;;;;;;;;11.40;99.90;;;;;;5078571;28;19924;-74
2022/06/05 00:51:29;;;;;;;;;;;11.40;99.90;;;;;;5115071;27;19927;-73
2022/06/05 00:53:54;;;;;;;;;;;11.40;99.90;;;;;;5080108;28;19929;-77
2022/06/05 00:56:20;;;;;;;;;;;11.50;99.90;;;;;;5082820;28;19920;-74
2022/06/05 00:58:45;;;;;;;;;;;11.40;99.90;;;;;;5083966;28;20386;-75
2022/06/05 01:01:12;;;;;;;;;;;11.40;99.90;;;;;;5115047;27;20003;-74
2022/06/05 01:03:37;;;;;;;;;;;11.50;99.90;;;;;;5081732;28;19942;-76
2022/06/05 01:06:03;;;;;;;;;;;11.40;99.90;;;;;;5080394;28;19929;-72
2022/06/05 01:08:28;;;;;;;;;;;11.40;99.90;;;;;;5084949;28;19921;-74
2022/06/05 01:10:57;;;;;;;;;;;11.50;99.90;;;;;;5082569;28;20908;-73
2022/06/05 01:13:29;;;;;;;;;;;11.50;99.90;;;;;;5080966;28;19928;-73
2022/06/05 01:16:13;;;;;;;;;;;11.40;99.90;;;;;;5081779;28;19983;-77
2022/06/05 01:18:45;;;;;;;;;;;11.50;99.90;;;;;;5083449;28;20113;-77
2022/06/05 01:21:29;;;;;;;;;;;11.50;99.90;;;;;;5116704;27;19973;-75
2022/06/05 01:24:00;;;;;;;;;;;11.40;99.90;;;;;;5078970;28;19928;-74
2022/06/05 01:26:26;;;;;;;;;;;11.40;99.90;;;;;;5083227;28;19927;-74
2022/06/05 01:28:56;;;;;;;;;;;11.40;99.90;;;;;;5085376;28;20748;-75
2022/06/05 01:31:25;;;;;;;;;;;11.40;99.90;;;;;;5118100;27;20256;-74
2022/06/05 01:33:55;;;;;;;;;;;11.40;99.90;;;;;;5082573;28;20367;-75
2022/06/05 01:36:24;;;;;;;;;;;11.40;99.90;;;;;;5064149;28;19932;-75
2022/06/05 01:39:08;;;;;;;;;;;11.40;99.90;;;;;;5074893;28;20291;-72
2022/06/05 01:41:36;;;;;;;;;;;11.40;99.90;;;;;;5077180;28;19924;-74
2022/06/05 01:44:04;;;;;;;;;;;11.40;99.90;;;;;;5080536;28;20010;-77
2022/06/05 01:46:34;;;;;;;;;;;11.30;99.90;;;;;;5078947;28;19924;-74
2022/06/05 01:49:17;;;;;;;;;;;11.30;99.90;;;;;;5086921;28;19920;-74
2022/06/05 01:51:54;;;;;;;;;;;11.30;99.90;;;;;;5078466;28;19927;-73
2022/06/05 01:54:23;;;;;;;;;;;11.30;99.90;;;;;;5077496;28;19928;-74
2022/06/05 01:56:51;;;;;;;;;;;11.40;99.90;;;;;;5077344;28;19992;-73
2022/06/05 01:59:23;;;;;;;;;;;11.30;99.90;;;;;;5074851;28;19924;-75
2022/06/05 02:01:53;;;;;;;;;;;11.30;99.90;;;;;;5081382;28;19981;-74
2022/06/05 02:04:21;;;;;;;;;;;11.40;99.90;;;;;;5076855;28;20006;-75
2022/06/05 02:06:53;;;;;;;;;;;11.30;99.90;;;;;;5080197;28;20321;-71
2022/06/05 02:09:21;;;;;;;;;;;11.40;99.90;;;;;;5078744;28;19920;-73
2022/06/05 02:11:47;;;;;;;;;;;11.40;99.90;;;;;;5080745;28;19920;-71
2022/06/05 02:14:13;;;;;;;;;;;11.30;99.90;;;;;;5077599;28;19931;-74
2022/06/05 02:16:39;;;;;;;;;;;11.30;99.90;;;;;;5081630;28;19932;-77
2022/06/05 02:19:09;;;;;;;;;;;11.30;99.90;;;;;;5085121;28;19928;-76
2022/06/05 02:21:37;;;;;;;;;;;11.30;99.90;;;;;;5078687;28;19921;-73
2022/06/05 02:24:03;;;;;;;;;;;11.30;99.90;;;;;;5115041;27;19963;-75
2022/06/05 02:26:29;;;;;;;;;;;11.30;99.90;;;;;;5077762;28;19973;-77
2022/06/05 02:28:56;;;;;;;;;;;11.30;99.90;;;;;;5074719;28;20019;-76
2022/06/05 02:31:26;;;;;;;;;;;11.30;99.90;;;;;;5079395;28;19928;-71
2022/06/05 02:34:03;;;;;;;;;;;11.30;99.90;;;;;;5080914;28;20386;-76
2022/06/05 02:36:47;;;;;;;;;;;11.40;99.90;;;;;;5111781;27;19920;-75
2022/06/05 02:39:18;;;;;;;;;;;11.30;99.90;;;;;;5078858;28;19920;-75
2022/06/05 02:41:49;;;;;;;;;;;11.40;99.90;;;;;;5073357;28;19967;-76
2022/06/05 02:44:30;;;;;;;;;;;11.40;99.90;;;;;;5079108;28;19934;-77
2022/06/05 02:47:14;;;;;;;;;;;11.40;99.90;;;;;;5076943;28;20318;-77
2022/06/05 02:49:43;;;;;;;;;;;11.40;99.90;;;;;;5083347;28;20287;-75
2022/06/05 02:52:09;;;;;;;;;;;11.40;99.90;;;;;;5076977;28;19928;-74
2022/06/05 02:54:42;;;;;;;;;;;11.40;99.90;;;;;;5079938;28;20451;-75
2022/06/05 02:57:08;;;;;;;;;;;11.40;99.90;;;;;;5077485;28;19928;-74
2022/06/05 02:59:33;;;;;;;;;;;11.40;99.90;;;;;;5108966;27;20220;-73
2022/06/05 03:04:43;;;;;;;;;;;11.40;99.90;;;;;;5082546;28;19966;-74
2022/06/05 03:07:08;;;;;;;;;;;11.50;99.90;;;;;;5078575;28;20321;-74
2022/06/05 03:09:35;;;;;;;;;;;11.40;99.90;;;;;;5079877;28;19920;-75
2022/06/05 03:12:01;;;;;;;;;;;11.50;99.90;;;;;;5076201;28;19932;-74
2022/06/05 03:14:27;;;;;;;;;;;11.50;99.90;;;;;;5082602;28;19932;-74
2022/06/05 03:16:52;;;;;;;;;;;11.50;99.90;;;;;;5081341;28;20393;-77
2022/06/05 03:19:18;;;;;;;;;;;11.40;99.90;;;;;;5073885;28;19950;-78
2022/06/05 03:21:44;;;;;;;;;;;11.50;99.90;;;;;;5112594;27;20363;-74
2022/06/05 03:24:09;;;;;;;;;;;11.50;99.90;;;;;;5079445;28;20287;-72
2022/06/05 03:26:35;;;;;;;;;;;11.40;99.90;;;;;;5073034;28;20126;-77
2022/06/05 03:29:00;;;;;;;;;;;11.50;99.90;;;;;;5074344;28;19921;-76
2022/06/05 03:31:26;;;;;;;;;;;11.50;99.90;;;;;;5080705;28;20278;-75
2022/06/05 03:33:51;;;;;;;;;;;11.50;99.90;;;;;;5078807;28;19927;-72
2022/06/05 03:36:19;;;;;;;;;;;11.50;99.90;;;;;;5072229;28;20208;-74
2022/06/05 03:38:45;;;;;;;;;;;11.50;99.90;;;;;;5080767;28;21476;-75
2022/06/05 03:41:13;;;;;;;;;;;11.50;99.90;;;;;;5073183;28;19924;-74
2022/06/05 03:43:38;;;;;;;;;;;11.50;99.90;;;;;;5106843;28;19924;-74
2022/06/05 03:46:05;;;;;;;;;;;11.60;99.90;;;;;;5078657;28;19921;-76
2022/06/05 03:48:31;;;;;;;;;;;11.50;99.90;;;;;;5079434;28;19924;-75
2022/06/05 03:50:57;;;;;;;;;;;11.60;99.90;;;;;;5081937;28;19947;-74
2022/06/05 03:53:22;;;;;;;;;;;11.60;99.90;;;;;;5082782;28;20307;-75
2022/06/05 03:55:48;;;;;;;;;;;11.60;99.90;;;;;;5079074;28;19935;-75
2022/06/05 03:58:13;;;;;;;;;;;11.60;99.90;;;;;;5080630;28;19924;-73
2022/06/05 04:00:40;;;;;;;;;;;11.60;99.90;;;;;;5076442;28;19920;-76
2022/06/05 04:03:06;;;;;;;;;;;11.70;99.90;;;;;;5073926;28;19982;-73
2022/06/05 04:05:32;;;;;;;;;;;11.70;99.90;;;;;;5070267;28;19968;-73
2022/06/05 04:07:58;;;;;;;;;;;11.70;99.90;;;;;;5073674;28;20014;-73
2022/06/05 04:10:23;;;;;;;;;;;11.80;99.90;;;;;;5082393;28;20459;-76
2022/06/05 04:12:49;;;;;;;;;;;11.80;99.90;;;;;;5117398;28;19924;-75
2022/06/05 04:15:15;;;;;;;;;;;11.80;99.90;;;;;;5078810;28;19957;-70
2022/06/05 04:17:40;;;;;;;;;;;11.90;99.90;;;;;;5080259;28;20018;-73
2022/06/05 04:20:06;;;;;;;;;;;12.00;99.90;;;;;;5085522;28;20354;-73
2022/06/05 04:22:33;;;;;;;;;;;12.00;99.90;;;;;;5088168;28;19926;-73
2022/06/05 04:24:59;;;;;;;;;;;12.10;99.90;;;;;;5085000;28;20337;-71
2022/06/05 04:27:25;;;;;;;;;;;12.20;99.90;;;;;;5078957;28;19928;-75
2022/06/05 04:29:50;;;;;;;;;;;12.30;99.90;;;;;;5084841;28;20019;-74
2022/06/05 04:32:16;;;;;;;;;;;12.30;99.90;;;;;;5065311;28;20375;-76
2022/06/05 04:34:41;;;;;;;;;;;12.40;99.90;;;;;;5082705;28;19924;-73
2022/06/05 04:37:07;;;;;;;;;;;12.50;99.90;;;;;;5080904;28;20580;-75
2022/06/05 04:39:32;;;;;;;;;;;12.50;99.90;;;;;;5110822;27;20390;-74
2022/06/05 04:41:58;;;;;;;;;;;12.50;99.90;;;;;;5074740;28;19924;-72
2022/06/05 04:44:23;;;;;;;;;;;12.60;99.90;;;;;;5077239;28;20022;-74
2022/06/05 04:46:49;;;;;;;;;;;12.60;99.90;;;;;;5083186;28;19920;-77
2022/06/05 04:49:14;;;;;;;;;;;12.60;99.90;;;;;;5082259;28;19928;-74
2022/06/05 04:51:40;;;;;;;;;;;12.70;99.90;;;;;;5116120;27;19920;-73
2022/06/05 04:54:07;;;;;;;;;;;12.70;99.90;;;;;;5080140;28;19923;-73
2022/06/05 04:56:32;;;;;;;;;;;12.70;99.90;;;;;;5084279;28;20293;-76
2022/06/05 04:58:58;;;;;;;;;;;12.70;99.90;;;;;;5087033;28;19920;-74
2022/06/05 05:01:28;;;;;;;;;;;12.80;99.90;;;;;;5077134;28;20433;-73
2022/06/05 05:03:55;;;;;;;;;;;12.80;99.90;;;;;;5077658;28;20007;-73
2022/06/05 05:06:21;;;;;;;;;;;12.80;99.90;;;;;;5079977;28;19940;-74
2022/06/05 05:08:46;;;;;;;;;;;12.90;99.90;;;;;;5085752;28;21508;-72
2022/06/05 05:11:12;;;;;;;;;;;12.90;99.90;;;;;;5083218;28;20007;-73
2022/06/05 05:13:37;;;;;;;;;;;12.90;99.90;;;;;;5075601;28;19981;-73
2022/06/05 05:16:03;;;;;;;;;;;12.90;99.90;;;;;;5084116;28;20056;-74
2022/06/05 05:18:29;;;;;;;;;;;13.00;99.90;;;;;;5081610;28;19928;-74
2022/06/05 05:21:02;;;;;;;;;;;13.00;99.90;;;;;;5117516;27;20433;-74
2022/06/05 05:23:28;;;;;;;;;;;13.10;99.90;;;;;;5073777;28;19920;-72
2022/06/05 05:25:54;;;;;;;;;;;13.20;99.90;;;;;;5083670;28;19920;-73
2022/06/05 05:28:19;;;;;;;;;;;13.20;99.90;;;;;;5078720;28;19927;-75
2022/06/05 05:30:45;;;;;;;;;;;13.30;99.90;;;;;;5083480;28;19924;-74
2022/06/05 05:33:11;;;;;;;;;;;13.30;99.90;;;;;;5079943;28;19986;-74
2022/06/05 05:35:37;;;;;;;;;;;13.40;99.90;;;;;;5114065;27;19925;-74
2022/06/05 05:38:02;;;;;;;;;;;13.40;99.90;;;;;;5085932;28;19980;-74
2022/06/05 05:43:12;;;;;;;;;;;13.50;99.90;;;;;;5112722;27;19969;-73
2022/06/05 05:45:37;;;;;;;;;;;13.60;99.90;;;;;;5081579;28;19981;-73
2022/06/05 05:48:03;;;;;;;;;;;13.70;99.90;;;;;;5084382;28;19923;-71
2022/06/05 05:50:28;;;;;;;;;;;13.80;99.90;;;;;;5107628;27;20281;-75
2022/06/05 05:52:54;;;;;;;;;;;13.80;99.90;;;;;;5081612;28;19985;-77
2022/06/05 05:55:20;;;;;;;;;;;13.90;99.90;;;;;;5082762;28;20039;-76
2022/06/05 05:57:46;;;;;;;;;;;14.10;99.90;;;;;;5079571;28;20412;-76
2022/06/05 06:00:13;;;;;;;;;;;14.20;99.90;;;;;;5082298;28;19928;-76
2022/06/05 06:02:39;;;;;;;;;;;14.30;99.90;;;;;;5079875;28;19935;-73
2022/06/05 06:05:05;;;;;;;;;;;14.40;99.90;;;;;;5086739;28;20318;-73
2022/06/05 06:07:31;;;;;;;;;;;14.50;99.90;;;;;;5079629;28;20062;-76
2022/06/05 06:09:56;;;;;;;;;;;14.50;99.90;;;;;;5084561;28;19935;-74
2022/06/05 06:12:23;;;;;;;;;;;14.60;99.90;;;;;;5082326;28;19924;-76
2022/06/05 06:14:48;;;;;;;;;;;14.70;99.90;;;;;;5081762;28;19931;-74
2022/06/05 06:17:14;;;;;;;;;;;14.80;99.90;;;;;;5079802;28;20027;-76
2022/06/05 06:19:39;;;;;;;;;;;14.80;99.90;;;;;;5081081;28;20375;-73
2022/06/05 06:22:05;;;;;;;;;;;14.90;99.90;;;;;;5077280;28;19928;-74
2022/06/05 06:24:30;;;;;;;;;;;14.90;99.90;;;;;;5081503;28;19931;-74
2022/06/05 06:26:56;;;;;;;;;;;15.00;99.90;;;;;;5076429;28;19925;-74
2022/06/05 06:29:21;;;;;;;;;;;15.10;99.90;;;;;;5078801;28;19920;-76
2022/06/05 06:31:47;;;;;;;;;;;15.20;99.90;;;;;;5080024;28;19921;-77
2022/06/05 06:34:13;;;;;;;;;;;15.30;99.90;;;;;;5081273;28;19931;-72
2022/06/05 06:36:38;;;;;;;;;;;15.30;99.90;;;;;;5081631;28;20329;-74
2022/06/05 06:39:04;;;;;;;;;;;15.50;99.90;;;;;;5080041;28;19967;-72
2022/06/05 06:41:30;;;;;;;;;;;15.60;99.90;;;;;;5079623;28;19927;-72
2022/06/05 06:43:55;;;;;;;;;;;15.70;99.90;;;;;;5078260;28;20355;-76
2022/06/05 06:46:21;;;;;;;;;;;15.80;99.90;;;;;;5080891;28;19928;-73
2022/06/05 06:48:47;;;;;;;;;;;15.90;99.90;;;;;;5108711;27;19920;-74
2022/06/05 06:51:13;;;;;;;;;;;16.10;99.90;;;;;;5082870;28;20005;-72
2022/06/05 06:53:39;;;;;;;;;;;16.20;99.90;;;;;;5080659;28;20351;-71
2022/06/05 06:56:09;;;;;;;;;;;16.40;99.90;;;;;;5080758;28;20019;-72
2022/06/05 06:58:35;;;;;;;;;;;16.50;99.90;;;;;;5106091;27;20412;-74
2022/06/05 07:01:00;;;;;;;;;;;16.70;99.90;;;;;;5080453;28;19923;-74
2022/06/05 07:03:26;;;;;;;;;;;16.80;99.90;;;;;;5080579;28;19924;-73
2022/06/05 07:05:51;;;;;;;;;;;16.90;99.90;;;;;;5078355;28;19949;-73
2022/06/05 07:08:17;;;;;;;;;;;16.90;99.90;;;;;;5083430;28;20444;-74
2022/06/05 07:10:43;;;;;;;;;;;17.00;99.90;;;;;;5078196;28;19950;-75
2022/06/05 07:13:09;;;;;;;;;;;17.00;99.90;;;;;;5081421;28;19920;-73
2022/06/05 07:15:34;;;;;;;;;;;17.10;99.90;;;;;;5083929;28;19924;-72
2022/06/05 07:18:04;;;;;;;;;;;17.10;99.90;;;;;;5079656;28;19924;-73
2022/06/05 07:20:38;;;;;;;;;;;17.20;99.90;;;;;;5075957;28;20812;-74
2022/06/05 07:23:05;;;;;;;;;;;17.20;99.90;;;;;;5108033;27;20432;-69
2022/06/05 07:25:31;;;;;;;;;;;17.20;99.90;;;;;;5081362;28;19959;-70
2022/06/05 07:27:57;;;;;;;;;;;17.20;99.90;;;;;;5080886;28;19929;-76
2022/06/05 07:30:22;;;;;;;;;;;17.30;99.90;;;;;;5079724;28;19931;-72
2022/06/05 07:32:48;;;;;;;;;;;17.30;99.90;;;;;;5112154;27;19920;-74
2022/06/05 07:35:14;;;;;;;;;;;17.30;99.90;;;;;;5078085;28;19954;-72
2022/06/05 07:37:40;;;;;;;;;;;17.40;99.90;;;;;;5109253;27;19921;-71
2022/06/05 07:40:06;;;;;;;;;;;17.30;99.90;;;;;;5089151;28;19930;-74
2022/06/05 07:42:34;;;;;;;;;;;17.40;99.90;;;;;;5105246;28;20029;-73
2022/06/05 07:45:00;;;;;;;;;;;17.40;99.90;;;;;;5089024;28;19928;-72
2022/06/05 07:47:26;;;;;;;;;;;17.40;99.90;;;;;;5087722;28;19924;-76
2022/06/05 07:49:51;;;;;;;;;;;17.40;99.90;;;;;;5079398;28;19920;-74
2022/06/05 07:55:01;;;;;;;;;;;17.50;99.90;;;;;;5081249;28;20345;-74
2022/06/05 07:57:26;;;;;;;;;;;17.50;99.90;;;;;;5080949;28;19920;-72
2022/06/05 07:59:52;;;;;;;;;;;17.60;99.90;;;;;;5085271;28;19927;-76
2022/06/05 08:02:19;;;;;;;;;;;17.60;99.90;;;;;;5084170;28;19926;-71
2022/06/05 08:04:44;;;;;;;;;;;17.70;99.90;;;;;;5081153;28;20003;-71
2022/06/05 08:07:11;;;;;;;;;;;17.80;99.90;;;;;;5077280;28;20450;-69
2022/06/05 08:09:37;;;;;;;;;;;17.90;99.90;;;;;;5084035;28;19927;-74
2022/06/05 08:12:03;;;;;;;;;;;18.00;99.90;;;;;;5106422;28;20251;-71
2022/06/05 08:14:34;;;;;;;;;;;18.00;99.90;;;;;;5106658;28;19968;-74
2022/06/05 08:17:00;;;;;;;;;;;18.10;99.90;;;;;;5094454;28;19971;-72
2022/06/05 08:19:25;;;;;;;;;;;18.10;99.90;;;;;;5077292;28;19971;-71
2022/06/05 08:21:52;;;;;;;;;;;18.20;99.90;;;;;;5114734;27;19973;-72
2022/06/05 08:24:17;;;;;;;;;;;18.20;99.90;;;;;;5073781;28;19920;-71
2022/06/05 08:26:43;;;;;;;;;;;18.30;99.90;;;;;;5075628;28;19927;-73
2022/06/05 08:29:09;;;;;;;;;;;18.40;99.90;;;;;;5093412;28;19926;-75
2022/06/05 08:31:35;;;;;;;;;;;18.40;99.90;;;;;;5083504;28;20029;-72
2022/06/05 08:34:04;;;;;;;;;;;18.50;99.90;;;;;;5094110;28;19920;-76
2022/06/05 08:36:30;;;;;;;;;;;18.60;99.90;;;;;;5088210;28;20017;-74
2022/06/05 08:41:58;;;;;;;;;;;18.80;99.90;;;;;;5079105;28;19977;-73
2022/06/05 08:44:29;;;;;;;;;;;18.80;99.90;;;;;;5085648;28;20393;-76
2022/06/05 08:47:01;;;;;;;;;;;19.00;99.90;;;;;;5080216;28;19920;-76
2022/06/05 08:49:38;;;;;;;;;;;19.00;99.90;;;;;;5084633;28;19927;-73
2022/06/05 08:52:07;;;;;;;;;;;19.10;99.90;;;;;;5085478;28;19920;-73
2022/06/05 08:54:42;;;;;;;;;;;19.30;99.90;;;;;;5082958;28;19924;-72
2022/06/05 08:57:16;;;;;;;;;;;19.50;99.90;;;;;;5084488;28;19928;-74
2022/06/05 09:12:36;;;;;;;18.85;12.40;;;19.90;99.90;;;;;;5079054;27;20430;-74
2022/06/05 09:15:14;;;;;;;15.32;12.27;;;20.50;99.90;;;;;;5044236;28;20036;-71
2022/06/05 09:17:58;;;;;;;15.35;11.90;;;20.50;99.90;;;;;;5041395;28;20063;-72
2022/06/05 09:20:43;;;;;;;17.85;12.38;;;20.60;99.90;;;;;;5044222;28;20482;-72
2022/06/05 09:23:34;;;;;;;14.88;12.00;;;20.70;99.90;;;;;;5045594;28;20102;-70
2022/06/05 09:26:16;;;;;;;15.25;11.93;;;20.80;99.90;;;;;;5043944;28;20045;-72
2022/06/05 09:28:53;;;;;;;15.35;11.95;;;20.90;99.90;;;;;;5073980;28;20383;-75
2022/06/05 09:31:57;;;;;;;15.32;12.43;;;20.90;99.90;;;;;;5082667;28;20261;-73
2022/06/05 09:34:43;;;;;;;13.38;11.52;;;21.00;99.90;;;;;;5046036;28;20501;-72
2022/06/05 09:37:16;;;;;;;14.73;11.73;;;21.00;99.90;;;;;;5047576;28;20126;-75
2022/06/05 09:39:54;;;;;;;17.17;11.98;;;21.10;99.90;;;;;;5042795;28;20071;-76
2022/06/05 09:42:33;;;;;;;15.30;11.85;;;21.10;99.90;;;;;;5073044;28;20118;-74
2022/06/05 09:45:13;;;;;;;14.95;11.82;;;21.10;99.90;;;;;;5045206;28;20037;-73
2022/06/05 09:48:17;;;;;;;17.60;12.20;;;21.10;99.90;;;;;;5078749;28;20115;-75
2022/06/05 09:50:42;;;;;;;16.48;12.27;;;21.20;99.90;;;;;;5043116;28;20076;-73
2022/06/05 09:53:18;;;;;;;16.60;11.50;;;21.20;99.90;;;;;;5044388;28;20141;-71
2022/06/05 09:55:46;;;;;;;14.95;11.35;;;21.20;99.90;;;;;;5046139;28;20475;-73
2022/06/05 09:58:39;;;;;;;15.13;12.05;;;21.20;99.90;;;;;;5044243;28;20520;-75
2022/06/05 10:01:30;;;;;;;16.98;11.63;;;21.30;99.90;;;;;;5037931;28;20060;-70
2022/06/05 10:04:03;;;;;;;15.03;11.67;;;21.30;99.90;;;;;;5077202;28;20125;-76
2022/06/05 10:06:29;;;;;;;14.10;12.10;;;21.30;99.90;;;;;;5045502;28;20294;-72
2022/06/05 10:09:13;;;;;;;13.88;12.38;;;21.40;99.90;;;;;;5042821;28;20040;-72
2022/06/05 10:11:47;;;;;;;15.57;11.95;;;21.40;99.90;;;;;;5050016;28;20061;-75
2022/06/05 10:14:41;;;;;;;15.45;12.05;;;21.40;99.90;;;;;;5047327;28;20041;-72
2022/06/05 10:17:40;;;;;;;13.85;11.20;;;21.40;99.90;;;;;;5065116;28;20402;-71
2022/06/05 10:20:05;;;;;;;14.30;11.90;;;21.50;99.90;;;;;;5033718;28;20041;-73
2022/06/05 10:22:55;;;;;;;14.52;12.07;;;21.60;99.90;;;;;;5032231;28;20090;-73
2022/06/05 10:25:44;;;;;;;15.38;11.90;;;21.60;99.90;;;;;;5021533;28;20044;-73
2022/06/05 10:28:20;;;;;;;15.18;12.15;;;21.70;99.90;;;;;;5023836;28;20458;-70
2022/06/05 10:31:07;;;;;;;14.57;11.75;;;21.70;99.90;;;;;;5029971;28;20047;-71
2022/06/05 10:33:39;;;;;;;15.45;12.55;;;21.80;99.90;;;;;;5025882;28;20119;-73
2022/06/05 10:36:22;;;;;;;14.57;12.40;;;21.80;99.90;;;;;;5042335;28;20564;-74
2022/06/05 10:39:11;;;;;;;16.17;11.75;;;21.90;99.90;;;;;;5033367;28;20045;-72
2022/06/05 10:41:57;;;;;;;14.35;11.85;;;21.90;99.90;;;;;;5032145;28;20128;-73
2022/06/05 10:44:38;;;;;;;14.63;11.68;;;21.90;99.90;;;;;;5008549;28;20128;-70
2022/06/05 10:47:30;;;;;;;14.60;11.77;;;21.90;99.90;;;;;;5032083;28;20028;-73
2022/06/05 10:50:02;;;;;;;14.48;11.65;;;21.90;99.90;;;;;;5026318;28;20045;-74
2022/06/05 10:52:34;;;;;;;14.07;11.68;;;21.80;99.90;;;;;;5046537;28;20136;-72
2022/06/05 10:55:05;;;;;;;13.27;11.80;;;21.80;99.90;;;;;;5031072;28;20290;-72
2022/06/05 10:57:34;;;;;;;15.32;11.35;;;21.80;99.90;;;;;;5060955;28;20070;-73
2022/06/05 11:00:16;;;;;;;14.30;12.48;;;21.80;99.90;;;;;;5028584;28;20036;-75
2022/06/05 11:03:02;;;;;;;15.63;11.73;;;21.80;99.90;;;;;;5029358;28;20052;-72
2022/06/05 11:05:50;;;;;;;13.02;11.48;;;21.80;99.90;;;;;;5029481;28;20148;-73
2022/06/05 11:08:33;;;;;;;14.82;11.52;;;21.80;99.90;;;;;;5062565;28;20041;-75
2022/06/05 11:14:16;;;;;;;15.52;11.48;;;21.80;99.90;;;;;;5062285;28;20102;-76
2022/06/05 11:16:54;;;;;;;13.18;11.48;;;21.90;99.90;;;;;;5025163;28;20376;-75
2022/06/05 11:19:58;;;;;;;15.68;11.57;;;21.90;99.90;;;;;;5032552;28;20045;-75
2022/06/05 11:22:26;;;;;;;14.27;12.30;;;21.90;99.90;;;;;;5016445;28;20042;-73
2022/06/05 11:24:57;;;;;;;13.57;11.18;;;21.90;99.90;;;;;;5030893;28;20394;-73
2022/06/05 11:27:36;;;;;;;13.38;11.52;;;21.80;99.90;;;;;;5033041;28;20044;-76
2022/06/05 11:30:26;;;;;;;13.90;12.20;;;21.90;99.90;;;;;;5025341;28;20430;-74
2022/06/05 11:33:11;;;;;;;16.80;12.45;;;21.90;99.90;;;;;;5027164;28;20049;-72
2022/06/05 11:35:42;;;;;;;17.00;11.65;;;22.00;99.90;;;;;;5029332;28;20130;-73
2022/06/05 11:38:16;;;;;;;15.60;12.80;;;22.00;99.90;;;;;;5028889;28;20064;-72
2022/06/05 11:41:12;;;;;;;15.02;12.88;;;22.00;99.90;;;;;;5030241;28;20506;-74
2022/06/05 11:43:39;;;;;;;14.20;12.73;;;22.10;99.90;;;;;;5028436;28;20071;-74
2022/06/05 11:46:15;;;;;;;17.35;13.00;;;22.10;99.90;;;;;;5031122;28;20296;-72
2022/06/05 11:48:52;;;;;;;14.57;12.23;;;22.10;99.90;;;;;;5058587;28;20475;-75
2022/06/05 11:51:30;;;;;;;16.25;12.50;;;22.10;99.90;;;;;;5030040;28;20055;-72
2022/06/05 11:54:19;;;;;;;14.32;12.77;;;22.00;99.90;;;;;;5032365;28;20037;-75
2022/06/05 11:57:07;;;;;;;14.30;12.80;;;22.00;99.90;;;;;;5028617;28;20132;-73
2022/06/05 12:00:00;;;;;;;13.95;12.52;;;22.00;99.90;;;;;;5060710;28;20041;-72
2022/06/05 12:02:53;;;;;;;13.43;12.00;;;22.00;99.90;;;;;;5059268;28;20120;-75
2022/06/05 12:05:26;;;;;;;16.00;12.20;;;22.00;99.90;;;;;;5029115;28;20069;-73
2022/06/05 12:08:02;;;;;;;14.40;12.25;;;22.00;99.90;;;;;;5013813;28;20029;-73
2022/06/05 12:10:30;;;;;;;15.15;12.70;;;22.00;99.90;;;;;;5029729;28;20041;-75
2022/06/05 12:13:27;;;;;;;13.75;12.30;;;22.00;99.90;;;;;;5033795;28;20037;-72
2022/06/05 12:16:06;;;;;;;15.32;12.85;;;22.00;99.90;;;;;;5032280;28;20055;-71
2022/06/05 12:18:40;;;;;;;14.02;12.63;;;21.90;99.90;;;;;;5031383;28;20045;-71
2022/06/05 12:21:15;;;;;;;16.42;13.05;;;21.90;99.90;;;;;;5026431;28;20386;-73
2022/06/05 12:23:54;;;;;;;16.63;12.60;;;21.90;99.90;;;;;;5023723;28;20039;-73
2022/06/05 12:26:30;;;;;;;14.32;12.85;;;21.90;99.90;;;;;;5027517;28;20041;-75
2022/06/05 12:29:06;;;;;;;14.73;12.48;;;21.90;99.90;;;;;;5026913;28;20182;-73
2022/06/05 12:31:56;;;;;;;14.02;12.25;;;21.80;99.90;;;;;;5029803;28;20037;-74
2022/06/05 12:34:39;;;;;;;16.35;12.55;;;21.90;99.90;;;;;;5058393;28;20052;-71
2022/06/05 12:37:17;;;;;;;15.38;12.40;;;22.00;99.90;;;;;;5036767;28;20475;-74
2022/06/05 12:39:54;;;;;;;13.98;12.23;;;22.00;99.90;;;;;;5033835;28;20036;-71
2022/06/05 12:42:43;;;;;;;14.77;11.70;;;22.00;99.90;;;;;;5037462;28;20041;-71
2022/06/05 12:45:20;;;;;;;16.73;12.18;;;22.10;99.90;;;;;;5027547;28;20037;-72
2022/06/05 12:48:21;;;;;;;13.30;11.90;;;22.10;99.90;;;;;;5057474;28;20090;-73
2022/06/05 12:50:53;;;;;;;13.73;12.32;;;22.10;99.90;;;;;;5022213;28;20045;-75
2022/06/05 12:53:38;;;;;;;13.98;12.57;;;22.10;99.90;;;;;;5025744;28;20044;-72
2022/06/05 12:56:27;;;;;;;15.38;12.10;;;22.10;99.90;;;;;;5013892;28;20045;-76
2022/06/05 12:59:17;;;;;;;13.18;11.88;;;22.10;99.90;;;;;;5041265;28;20044;-73
2022/06/05 13:01:50;;;;;;;13.70;12.30;;;22.20;99.90;;;;;;5055960;28;20510;-74
2022/06/05 13:04:57;;;;;;;13.52;12.13;;;22.20;99.90;;;;;;5033486;28;20592;-76
2022/06/05 13:07:34;;;;;;;13.75;12.32;;;22.30;99.90;;;;;;4988379;28;20046;-74
2022/06/05 13:10:14;;;;;;;14.23;12.07;;;22.40;99.90;;;;;;5029387;28;20132;-69
2022/06/05 13:12:54;;;;;;;14.15;12.75;;;22.40;99.90;;;;;;5029853;28;20041;-74
2022/06/05 13:15:40;;;;;;;13.95;12.25;;;22.50;99.90;;;;;;5041537;28;20041;-75
2022/06/05 13:18:06;;;;;;;13.60;12.20;;;22.60;99.90;;;;;;5039087;28;20383;-74
2022/06/05 13:21:04;;;;;;;13.23;11.85;;;22.60;99.90;;;;;;5051037;28;20051;-73
2022/06/05 13:23:45;;;;;;;13.52;12.20;;;22.60;99.90;;;;;;5046394;28;20045;-73
2022/06/05 13:26:47;;;;;;;13.68;12.27;;;22.70;99.90;;;;;;5036402;28;20115;-74
2022/06/05 13:29:48;;;;;;;13.55;12.05;;;22.80;99.90;;;;;;5024276;28;20459;-72
2022/06/05 13:32:29;;;;;;;12.55;11.35;;;22.90;99.90;;;;;;4999654;28;20102;-74
2022/06/05 13:35:02;;;;;;;13.80;12.38;;;22.90;99.90;;;;;;5037541;28;20033;-75
2022/06/05 13:37:51;;;;;;;13.05;11.73;;;22.90;99.90;;;;;;5037065;28;20033;-75
2022/06/05 13:40:33;;;;;;;13.32;11.82;;;22.80;99.90;;;;;;5037142;28;20037;-75
2022/06/05 13:43:01;;;;;;;13.77;11.73;;;22.80;99.90;;;;;;5032565;28;20047;-77
2022/06/05 13:45:47;;;;;;;15.48;12.13;;;22.80;99.90;;;;;;5034914;28;20036;-73
2022/06/05 13:48:16;;;;;;;17.15;11.90;;;22.80;99.90;;;;;;5049355;28;20040;-74
2022/06/05 13:50:51;;;;;;;14.40;11.85;;;22.80;99.90;;;;;;5040151;28;20495;-75
2022/06/05 13:53:25;;;;;;;14.15;12.27;;;22.70;99.90;;;;;;5050853;28;20534;-74
2022/06/05 13:56:19;;;;;;;14.23;12.32;;;22.70;99.90;;;;;;5042064;28;20049;-75
2022/06/05 13:58:51;;;;;;;13.13;11.82;;;22.60;99.90;;;;;;5059944;28;20048;-71
2022/06/05 14:01:40;;;;;;;13.55;12.10;;;22.50;99.90;;;;;;5034862;28;20033;-71
2022/06/05 14:04:15;;;;;;;15.18;12.23;;;22.50;99.90;;;;;;5031364;28;20037;-73
2022/06/05 14:06:50;;;;;;;13.45;12.05;;;22.40;99.90;;;;;;5035433;28;20033;-76
2022/06/05 14:09:39;;;;;;;15.02;12.30;;;22.30;99.90;;;;;;5030531;28;20168;-72
2022/06/05 14:12:07;;;;;;;13.93;12.23;;;22.20;99.90;;;;;;5041333;28;20072;-76
2022/06/05 14:14:42;;;;;;;13.68;12.20;;;22.10;99.90;;;;;;5038942;28;20033;-73
2022/06/05 14:17:31;;;;;;;14.25;12.35;;;22.00;99.90;;;;;;5060201;28;20055;-74
2022/06/05 14:20:00;;;;;;;15.23;12.27;;;21.90;99.90;;;;;;5050493;28;20112;-72
2022/06/05 14:22:31;;;;;;;14.05;12.60;;;21.90;99.90;;;;;;5046174;28;20132;-73
2022/06/05 14:24:58;;;;;;;13.57;12.10;;;21.90;99.90;;;;;;5060247;28;20041;-74
2022/06/05 14:27:36;;;;;;;14.75;12.50;;;21.90;99.90;;;;;;5057374;28;20037;-73
2022/06/05 14:30:19;;;;;;;14.20;12.80;;;21.90;99.90;;;;;;5039981;28;20052;-73